sensor_id;sensor_type;location;lat;lon;timestamp;P1;durP1;ratioP1;P2;durP2;ratioP2
61150;SDS011;47029;50.994;2.876;2022-08-19T00:01:39;30.45;;;16.83;;
61150;SDS011;47029;50.994;2.876;2022-08-19T00:04:07;29.83;;;16.35;;
61150;SDS011;47029;50.994;2.876;2022-08-19T00:06:33;31.37;;;17.48;;
61150;SDS011;47029;50.994;2.876;2022-08-19T00:09:01;30.60;;;17.45;;
61150;SDS011;47029;50.994;2.876;2022-08-19T00:11:28;32.22;;;17.10;;
61150;SDS011;47029;50.994;2.876;2022-08-19T00:13:55;31.67;;;16.90;;
61150;SDS011;47029;50.994;2.876;2022-08-19T00:16:21;28.35;;;16.27;;
61150;SDS011;47029;50.994;2.876;2022-08-19T00:18:48;37.75;;;16.95;;
61150;SDS011;47029;50.994;2.876;2022-08-19T00:21:14;30.67;;;16.83;;
61150;SDS011;47029;50.994;2.876;2022-08-19T00:23:41;31.85;;;18.23;;
61150;SDS011;47029;50.994;2.876;2022-08-19T00:26:08;33.40;;;17.85;;
61150;SDS011;47029;50.994;2.876;2022-08-19T00:28:35;30.88;;;17.48;;
61150;SDS011;47029;50.994;2.876;2022-08-19T00:31:01;34.88;;;17.12;;
61150;SDS011;47029;50.994;2.876;2022-08-19T00:33:31;31.08;;;17.98;;
61150;SDS011;47029;50.994;2.876;2022-08-19T00:36:03;31.62;;;18.52;;
61150;SDS011;47029;50.994;2.876;2022-08-19T00:38:31;30.85;;;17.05;;
61150;SDS011;47029;50.994;2.876;2022-08-19T00:40:58;32.00;;;17.12;;
61150;SDS011;47029;50.994;2.876;2022-08-19T00:43:25;31.25;;;17.67;;
61150;SDS011;47029;50.994;2.876;2022-08-19T00:45:52;30.83;;;17.87;;
61150;SDS011;47029;50.994;2.876;2022-08-19T00:48:18;33.00;;;18.40;;
61150;SDS011;47029;50.994;2.876;2022-08-19T00:50:46;32.30;;;17.15;;
61150;SDS011;47029;50.994;2.876;2022-08-19T00:53:14;32.33;;;17.75;;
61150;SDS011;47029;50.994;2.876;2022-08-19T00:55:44;32.03;;;17.92;;
61150;SDS011;47029;50.994;2.876;2022-08-19T00:58:14;30.73;;;16.87;;
61150;SDS011;47029;50.994;2.876;2022-08-19T01:00:42;33.92;;;16.48;;
61150;SDS011;47029;50.994;2.876;2022-08-19T01:03:09;32.25;;;17.40;;
61150;SDS011;47029;50.994;2.876;2022-08-19T01:05:37;27.83;;;16.15;;
61150;SDS011;47029;50.994;2.876;2022-08-19T01:08:06;29.08;;;16.02;;
61150;SDS011;47029;50.994;2.876;2022-08-19T01:10:37;29.42;;;16.62;;
61150;SDS011;47029;50.994;2.876;2022-08-19T01:13:06;29.35;;;16.67;;
61150;SDS011;47029;50.994;2.876;2022-08-19T01:15:39;34.15;;;16.95;;
61150;SDS011;47029;50.994;2.876;2022-08-19T01:18:12;30.37;;;16.60;;
61150;SDS011;47029;50.994;2.876;2022-08-19T01:20:39;29.08;;;16.17;;
61150;SDS011;47029;50.994;2.876;2022-08-19T01:23:06;32.08;;;16.12;;
61150;SDS011;47029;50.994;2.876;2022-08-19T01:25:39;29.17;;;16.20;;
61150;SDS011;47029;50.994;2.876;2022-08-19T01:28:14;29.85;;;15.93;;
61150;SDS011;47029;50.994;2.876;2022-08-19T01:30:51;35.33;;;16.08;;
61150;SDS011;47029;50.994;2.876;2022-08-19T01:33:18;31.10;;;15.50;;
61150;SDS011;47029;50.994;2.876;2022-08-19T01:35:44;29.50;;;15.82;;
61150;SDS011;47029;50.994;2.876;2022-08-19T01:38:19;26.98;;;15.30;;
61150;SDS011;47029;50.994;2.876;2022-08-19T01:40:47;27.20;;;15.23;;
61150;SDS011;47029;50.994;2.876;2022-08-19T01:43:13;27.27;;;15.63;;
61150;SDS011;47029;50.994;2.876;2022-08-19T01:45:40;32.53;;;15.65;;
61150;SDS011;47029;50.994;2.876;2022-08-19T01:48:06;31.48;;;16.12;;
61150;SDS011;47029;50.994;2.876;2022-08-19T01:50:32;28.35;;;15.50;;
61150;SDS011;47029;50.994;2.876;2022-08-19T01:53:00;29.00;;;14.68;;
61150;SDS011;47029;50.994;2.876;2022-08-19T01:55:27;25.45;;;14.07;;
61150;SDS011;47029;50.994;2.876;2022-08-19T01:57:54;25.23;;;13.75;;
61150;SDS011;47029;50.994;2.876;2022-08-19T02:00:23;26.12;;;13.68;;
61150;SDS011;47029;50.994;2.876;2022-08-19T02:02:51;28.35;;;13.10;;
61150;SDS011;47029;50.994;2.876;2022-08-19T02:05:17;25.62;;;12.85;;
61150;SDS011;47029;50.994;2.876;2022-08-19T02:07:43;25.17;;;13.00;;
61150;SDS011;47029;50.994;2.876;2022-08-19T02:10:11;24.25;;;12.63;;
61150;SDS011;47029;50.994;2.876;2022-08-19T02:12:38;25.67;;;13.07;;
61150;SDS011;47029;50.994;2.876;2022-08-19T02:15:04;26.10;;;13.40;;
61150;SDS011;47029;50.994;2.876;2022-08-19T02:17:32;26.50;;;13.88;;
61150;SDS011;47029;50.994;2.876;2022-08-19T02:19:58;26.48;;;14.10;;
61150;SDS011;47029;50.994;2.876;2022-08-19T02:22:25;26.33;;;13.70;;
61150;SDS011;47029;50.994;2.876;2022-08-19T02:24:52;25.92;;;14.00;;
61150;SDS011;47029;50.994;2.876;2022-08-19T02:27:18;27.20;;;13.73;;
61150;SDS011;47029;50.994;2.876;2022-08-19T02:29:45;27.98;;;14.15;;
61150;SDS011;47029;50.994;2.876;2022-08-19T02:32:11;22.90;;;12.90;;
61150;SDS011;47029;50.994;2.876;2022-08-19T02:34:37;27.33;;;13.27;;
61150;SDS011;47029;50.994;2.876;2022-08-19T02:37:03;26.48;;;13.68;;
61150;SDS011;47029;50.994;2.876;2022-08-19T02:39:28;24.40;;;12.52;;
61150;SDS011;47029;50.994;2.876;2022-08-19T02:41:54;24.02;;;12.43;;
61150;SDS011;47029;50.994;2.876;2022-08-19T02:44:20;23.48;;;12.48;;
61150;SDS011;47029;50.994;2.876;2022-08-19T02:46:46;24.60;;;12.32;;
61150;SDS011;47029;50.994;2.876;2022-08-19T02:49:15;24.92;;;13.00;;
61150;SDS011;47029;50.994;2.876;2022-08-19T02:51:42;23.30;;;11.98;;
61150;SDS011;47029;50.994;2.876;2022-08-19T02:54:10;25.10;;;12.37;;
61150;SDS011;47029;50.994;2.876;2022-08-19T02:56:38;28.55;;;11.93;;
61150;SDS011;47029;50.994;2.876;2022-08-19T02:59:05;24.02;;;12.35;;
61150;SDS011;47029;50.994;2.876;2022-08-19T03:01:33;21.48;;;12.25;;
61150;SDS011;47029;50.994;2.876;2022-08-19T03:04:01;21.83;;;11.98;;
61150;SDS011;47029;50.994;2.876;2022-08-19T03:06:29;24.77;;;11.93;;
61150;SDS011;47029;50.994;2.876;2022-08-19T03:08:55;22.08;;;11.40;;
61150;SDS011;47029;50.994;2.876;2022-08-19T03:11:23;22.98;;;11.85;;
61150;SDS011;47029;50.994;2.876;2022-08-19T03:13:52;23.00;;;11.65;;
61150;SDS011;47029;50.994;2.876;2022-08-19T03:16:19;21.25;;;11.38;;
61150;SDS011;47029;50.994;2.876;2022-08-19T03:18:48;22.10;;;11.85;;
61150;SDS011;47029;50.994;2.876;2022-08-19T03:21:15;22.65;;;11.50;;
61150;SDS011;47029;50.994;2.876;2022-08-19T03:23:43;23.75;;;10.68;;
61150;SDS011;47029;50.994;2.876;2022-08-19T03:26:09;23.23;;;11.38;;
61150;SDS011;47029;50.994;2.876;2022-08-19T03:28:34;21.05;;;10.70;;
61150;SDS011;47029;50.994;2.876;2022-08-19T03:31:05;23.73;;;10.93;;
61150;SDS011;47029;50.994;2.876;2022-08-19T03:33:34;23.58;;;11.77;;
61150;SDS011;47029;50.994;2.876;2022-08-19T03:38:30;22.87;;;11.30;;
61150;SDS011;47029;50.994;2.876;2022-08-19T03:40:57;22.75;;;11.05;;
61150;SDS011;47029;50.994;2.876;2022-08-19T03:43:23;27.67;;;11.75;;
61150;SDS011;47029;50.994;2.876;2022-08-19T03:45:58;22.90;;;11.25;;
61150;SDS011;47029;50.994;2.876;2022-08-19T03:48:48;25.80;;;10.85;;
61150;SDS011;47029;50.994;2.876;2022-08-19T03:51:23;25.65;;;11.40;;
61150;SDS011;47029;50.994;2.876;2022-08-19T03:53:54;21.73;;;10.55;;
61150;SDS011;47029;50.994;2.876;2022-08-19T03:56:21;22.83;;;9.93;;
61150;SDS011;47029;50.994;2.876;2022-08-19T03:58:47;23.00;;;10.55;;
61150;SDS011;47029;50.994;2.876;2022-08-19T04:01:15;24.25;;;11.00;;
61150;SDS011;47029;50.994;2.876;2022-08-19T04:03:42;22.70;;;11.12;;
61150;SDS011;47029;50.994;2.876;2022-08-19T04:08:41;24.23;;;10.75;;
61150;SDS011;47029;50.994;2.876;2022-08-19T04:11:09;23.33;;;10.35;;
61150;SDS011;47029;50.994;2.876;2022-08-19T04:13:37;24.98;;;10.55;;
61150;SDS011;47029;50.994;2.876;2022-08-19T04:16:03;24.25;;;10.20;;
61150;SDS011;47029;50.994;2.876;2022-08-19T04:18:30;23.10;;;10.30;;
61150;SDS011;47029;50.994;2.876;2022-08-19T04:20:57;26.25;;;11.10;;
61150;SDS011;47029;50.994;2.876;2022-08-19T04:23:23;24.35;;;10.00;;
61150;SDS011;47029;50.994;2.876;2022-08-19T04:25:49;23.27;;;10.32;;
61150;SDS011;47029;50.994;2.876;2022-08-19T04:28:15;21.02;;;10.40;;
61150;SDS011;47029;50.994;2.876;2022-08-19T04:30:51;23.65;;;10.27;;
61150;SDS011;47029;50.994;2.876;2022-08-19T04:33:18;25.08;;;10.95;;
61150;SDS011;47029;50.994;2.876;2022-08-19T04:35:53;26.17;;;10.75;;
61150;SDS011;47029;50.994;2.876;2022-08-19T04:38:19;28.77;;;10.82;;
61150;SDS011;47029;50.994;2.876;2022-08-19T04:40:50;26.37;;;10.63;;
61150;SDS011;47029;50.994;2.876;2022-08-19T04:43:35;24.50;;;10.07;;
61150;SDS011;47029;50.994;2.876;2022-08-19T04:46:09;23.60;;;9.80;;
61150;SDS011;47029;50.994;2.876;2022-08-19T04:48:37;21.70;;;10.18;;
61150;SDS011;47029;50.994;2.876;2022-08-19T04:51:05;24.17;;;9.57;;
61150;SDS011;47029;50.994;2.876;2022-08-19T04:53:33;23.77;;;9.80;;
61150;SDS011;47029;50.994;2.876;2022-08-19T04:56:12;21.65;;;9.68;;
61150;SDS011;47029;50.994;2.876;2022-08-19T04:58:40;22.30;;;9.65;;
61150;SDS011;47029;50.994;2.876;2022-08-19T05:01:08;23.40;;;9.70;;
61150;SDS011;47029;50.994;2.876;2022-08-19T05:03:36;22.20;;;9.82;;
61150;SDS011;47029;50.994;2.876;2022-08-19T05:06:10;25.40;;;10.25;;
61150;SDS011;47029;50.994;2.876;2022-08-19T05:08:38;20.48;;;10.32;;
61150;SDS011;47029;50.994;2.876;2022-08-19T05:11:09;20.23;;;9.90;;
61150;SDS011;47029;50.994;2.876;2022-08-19T05:13:38;25.10;;;10.25;;
61150;SDS011;47029;50.994;2.876;2022-08-19T05:16:04;20.10;;;9.90;;
61150;SDS011;47029;50.994;2.876;2022-08-19T05:18:30;23.80;;;9.63;;
61150;SDS011;47029;50.994;2.876;2022-08-19T05:21:15;23.17;;;10.45;;
61150;SDS011;47029;50.994;2.876;2022-08-19T05:24:01;21.25;;;9.77;;
61150;SDS011;47029;50.994;2.876;2022-08-19T05:26:28;20.02;;;9.20;;
61150;SDS011;47029;50.994;2.876;2022-08-19T05:28:54;24.12;;;9.30;;
61150;SDS011;47029;50.994;2.876;2022-08-19T05:31:20;20.40;;;9.27;;
61150;SDS011;47029;50.994;2.876;2022-08-19T05:33:46;25.42;;;8.95;;
61150;SDS011;47029;50.994;2.876;2022-08-19T05:36:13;19.30;;;8.80;;
61150;SDS011;47029;50.994;2.876;2022-08-19T05:38:39;22.10;;;8.82;;
61150;SDS011;47029;50.994;2.876;2022-08-19T05:41:06;17.40;;;8.73;;
61150;SDS011;47029;50.994;2.876;2022-08-19T05:43:33;17.98;;;8.63;;
61150;SDS011;47029;50.994;2.876;2022-08-19T05:46:07;17.27;;;8.57;;
61150;SDS011;47029;50.994;2.876;2022-08-19T05:48:33;20.30;;;8.02;;
61150;SDS011;47029;50.994;2.876;2022-08-19T05:51:04;20.55;;;8.30;;
61150;SDS011;47029;50.994;2.876;2022-08-19T05:53:33;20.77;;;8.43;;
61150;SDS011;47029;50.994;2.876;2022-08-19T05:56:10;17.98;;;8.20;;
61150;SDS011;47029;50.994;2.876;2022-08-19T05:58:39;20.42;;;8.68;;
61150;SDS011;47029;50.994;2.876;2022-08-19T06:01:10;19.33;;;8.48;;
61150;SDS011;47029;50.994;2.876;2022-08-19T06:03:39;20.90;;;8.82;;
61150;SDS011;47029;50.994;2.876;2022-08-19T06:06:06;16.77;;;7.95;;
61150;SDS011;47029;50.994;2.876;2022-08-19T06:08:34;19.17;;;8.57;;
61150;SDS011;47029;50.994;2.876;2022-08-19T06:16:15;19.10;;;8.23;;
61150;SDS011;47029;50.994;2.876;2022-08-19T06:18:46;16.85;;;7.43;;
61150;SDS011;47029;50.994;2.876;2022-08-19T06:21:11;15.35;;;7.70;;
61150;SDS011;47029;50.994;2.876;2022-08-19T06:23:38;17.87;;;7.25;;
61150;SDS011;47029;50.994;2.876;2022-08-19T06:26:04;15.30;;;7.57;;
61150;SDS011;47029;50.994;2.876;2022-08-19T06:28:30;17.65;;;7.90;;
61150;SDS011;47029;50.994;2.876;2022-08-19T06:30:57;16.77;;;8.02;;
61150;SDS011;47029;50.994;2.876;2022-08-19T06:33:23;18.70;;;7.85;;
61150;SDS011;47029;50.994;2.876;2022-08-19T06:35:49;17.33;;;7.18;;
61150;SDS011;47029;50.994;2.876;2022-08-19T06:38:15;16.15;;;7.28;;
61150;SDS011;47029;50.994;2.876;2022-08-19T06:40:41;18.98;;;7.00;;
61150;SDS011;47029;50.994;2.876;2022-08-19T06:43:07;15.38;;;7.32;;
61150;SDS011;47029;50.994;2.876;2022-08-19T06:45:33;16.08;;;7.07;;
61150;SDS011;47029;50.994;2.876;2022-08-19T06:48:01;17.23;;;7.10;;
61150;SDS011;47029;50.994;2.876;2022-08-19T06:50:27;17.40;;;7.43;;
61150;SDS011;47029;50.994;2.876;2022-08-19T06:52:53;17.60;;;7.37;;
61150;SDS011;47029;50.994;2.876;2022-08-19T06:55:19;16.90;;;7.62;;
61150;SDS011;47029;50.994;2.876;2022-08-19T06:57:45;17.27;;;7.37;;
61150;SDS011;47029;50.994;2.876;2022-08-19T07:00:11;19.80;;;7.55;;
61150;SDS011;47029;50.994;2.876;2022-08-19T07:02:40;18.87;;;7.87;;
61150;SDS011;47029;50.994;2.876;2022-08-19T07:05:07;15.23;;;7.10;;
61150;SDS011;47029;50.994;2.876;2022-08-19T07:07:33;16.17;;;7.53;;
61150;SDS011;47029;50.994;2.876;2022-08-19T07:09:59;17.33;;;7.53;;
61150;SDS011;47029;50.994;2.876;2022-08-19T07:12:26;15.43;;;6.70;;
61150;SDS011;47029;50.994;2.876;2022-08-19T07:14:54;14.45;;;6.78;;
61150;SDS011;47029;50.994;2.876;2022-08-19T07:17:20;14.57;;;6.10;;
61150;SDS011;47029;50.994;2.876;2022-08-19T07:19:46;13.10;;;5.97;;
61150;SDS011;47029;50.994;2.876;2022-08-19T07:22:11;14.95;;;5.90;;
61150;SDS011;47029;50.994;2.876;2022-08-19T07:24:38;12.85;;;5.90;;
61150;SDS011;47029;50.994;2.876;2022-08-19T07:27:04;14.20;;;6.03;;
61150;SDS011;47029;50.994;2.876;2022-08-19T07:29:32;14.82;;;5.87;;
61150;SDS011;47029;50.994;2.876;2022-08-19T07:32:00;12.25;;;5.72;;
61150;SDS011;47029;50.994;2.876;2022-08-19T07:34:27;11.73;;;5.68;;
61150;SDS011;47029;50.994;2.876;2022-08-19T07:36:55;14.25;;;5.93;;
61150;SDS011;47029;50.994;2.876;2022-08-19T07:39:24;14.40;;;5.85;;
61150;SDS011;47029;50.994;2.876;2022-08-19T07:41:52;13.18;;;5.55;;
61150;SDS011;47029;50.994;2.876;2022-08-19T07:44:18;12.73;;;5.28;;
61150;SDS011;47029;50.994;2.876;2022-08-19T07:46:50;11.30;;;4.93;;
61150;SDS011;47029;50.994;2.876;2022-08-19T07:49:18;10.73;;;4.97;;
61150;SDS011;47029;50.994;2.876;2022-08-19T07:51:47;12.37;;;5.03;;
61150;SDS011;47029;50.994;2.876;2022-08-19T07:54:21;11.20;;;4.70;;
61150;SDS011;47029;50.994;2.876;2022-08-19T07:56:48;11.20;;;4.75;;
61150;SDS011;47029;50.994;2.876;2022-08-19T07:59:16;13.32;;;4.70;;
61150;SDS011;47029;50.994;2.876;2022-08-19T08:01:43;12.05;;;4.30;;
61150;SDS011;47029;50.994;2.876;2022-08-19T08:04:09;10.88;;;4.28;;
61150;SDS011;47029;50.994;2.876;2022-08-19T08:06:54;10.60;;;4.32;;
61150;SDS011;47029;50.994;2.876;2022-08-19T08:09:39;11.35;;;4.65;;
61150;SDS011;47029;50.994;2.876;2022-08-19T08:12:08;11.15;;;4.03;;
61150;SDS011;47029;50.994;2.876;2022-08-19T08:14:48;8.98;;;3.55;;
61150;SDS011;47029;50.994;2.876;2022-08-19T08:17:16;8.88;;;3.30;;
61150;SDS011;47029;50.994;2.876;2022-08-19T08:19:43;9.18;;;3.70;;
61150;SDS011;47029;50.994;2.876;2022-08-19T08:22:10;9.50;;;3.58;;
61150;SDS011;47029;50.994;2.876;2022-08-19T08:25:07;9.98;;;3.20;;
61150;SDS011;47029;50.994;2.876;2022-08-19T08:27:42;9.02;;;3.50;;
61150;SDS011;47029;50.994;2.876;2022-08-19T08:30:12;8.65;;;3.20;;
61150;SDS011;47029;50.994;2.876;2022-08-19T08:32:40;8.38;;;3.45;;
61150;SDS011;47029;50.994;2.876;2022-08-19T08:35:07;7.15;;;2.90;;
61150;SDS011;47029;50.994;2.876;2022-08-19T08:37:37;8.20;;;2.80;;
61150;SDS011;47029;50.994;2.876;2022-08-19T08:40:07;7.85;;;2.83;;
61150;SDS011;47029;50.994;2.876;2022-08-19T08:42:49;8.55;;;2.87;;
61150;SDS011;47029;50.994;2.876;2022-08-19T08:45:30;7.90;;;2.90;;
61150;SDS011;47029;50.994;2.876;2022-08-19T08:48:02;8.75;;;3.03;;
61150;SDS011;47029;50.994;2.876;2022-08-19T08:50:36;7.72;;;2.70;;
61150;SDS011;47029;50.994;2.876;2022-08-19T08:53:07;8.23;;;2.87;;
61150;SDS011;47029;50.994;2.876;2022-08-19T08:55:35;8.23;;;3.10;;
61150;SDS011;47029;50.994;2.876;2022-08-19T08:58:03;8.05;;;2.90;;
61150;SDS011;47029;50.994;2.876;2022-08-19T09:00:38;7.75;;;2.90;;
61150;SDS011;47029;50.994;2.876;2022-08-19T09:03:26;8.95;;;2.97;;
61150;SDS011;47029;50.994;2.876;2022-08-19T09:06:00;7.53;;;2.90;;
61150;SDS011;47029;50.994;2.876;2022-08-19T09:11:21;8.15;;;2.80;;
61150;SDS011;47029;50.994;2.876;2022-08-19T09:16:44;7.22;;;2.78;;
61150;SDS011;47029;50.994;2.876;2022-08-19T09:19:10;7.65;;;2.90;;
61150;SDS011;47029;50.994;2.876;2022-08-19T09:21:36;9.10;;;2.90;;
61150;SDS011;47029;50.994;2.876;2022-08-19T09:24:04;7.12;;;2.72;;
61150;SDS011;47029;50.994;2.876;2022-08-19T09:26:31;7.35;;;2.50;;
61150;SDS011;47029;50.994;2.876;2022-08-19T09:28:58;9.90;;;2.80;;
61150;SDS011;47029;50.994;2.876;2022-08-19T09:31:25;7.57;;;2.70;;
61150;SDS011;47029;50.994;2.876;2022-08-19T09:33:54;6.95;;;2.60;;
61150;SDS011;47029;50.994;2.876;2022-08-19T09:36:23;6.32;;;2.40;;
61150;SDS011;47029;50.994;2.876;2022-08-19T09:38:51;7.60;;;2.50;;
61150;SDS011;47029;50.994;2.876;2022-08-19T09:41:19;7.15;;;2.40;;
61150;SDS011;47029;50.994;2.876;2022-08-19T09:43:49;8.13;;;2.55;;
61150;SDS011;47029;50.994;2.876;2022-08-19T09:46:20;6.50;;;2.30;;
61150;SDS011;47029;50.994;2.876;2022-08-19T09:48:47;8.55;;;2.80;;
61150;SDS011;47029;50.994;2.876;2022-08-19T09:51:16;8.02;;;2.72;;
61150;SDS011;47029;50.994;2.876;2022-08-19T09:53:47;6.78;;;2.50;;
61150;SDS011;47029;50.994;2.876;2022-08-19T09:56:19;8.50;;;2.62;;
61150;SDS011;47029;50.994;2.876;2022-08-19T09:58:46;8.35;;;2.80;;
61150;SDS011;47029;50.994;2.876;2022-08-19T10:01:23;8.55;;;2.90;;
61150;SDS011;47029;50.994;2.876;2022-08-19T10:03:53;7.30;;;2.60;;
61150;SDS011;47029;50.994;2.876;2022-08-19T10:06:21;7.60;;;2.30;;
61150;SDS011;47029;50.994;2.876;2022-08-19T10:08:48;6.37;;;2.37;;
61150;SDS011;47029;50.994;2.876;2022-08-19T10:11:16;7.18;;;2.28;;
61150;SDS011;47029;50.994;2.876;2022-08-19T10:13:43;6.47;;;2.50;;
61150;SDS011;47029;50.994;2.876;2022-08-19T10:16:11;8.90;;;2.60;;
61150;SDS011;47029;50.994;2.876;2022-08-19T10:18:39;7.03;;;2.45;;
61150;SDS011;47029;50.994;2.876;2022-08-19T10:21:10;6.55;;;2.33;;
61150;SDS011;47029;50.994;2.876;2022-08-19T10:23:45;8.43;;;2.60;;
61150;SDS011;47029;50.994;2.876;2022-08-19T10:26:14;6.75;;;2.50;;
61150;SDS011;47029;50.994;2.876;2022-08-19T10:28:43;7.40;;;2.60;;
61150;SDS011;47029;50.994;2.876;2022-08-19T10:31:13;7.75;;;2.42;;
61150;SDS011;47029;50.994;2.876;2022-08-19T10:33:42;7.32;;;2.50;;
61150;SDS011;47029;50.994;2.876;2022-08-19T10:36:10;7.55;;;2.72;;
61150;SDS011;47029;50.994;2.876;2022-08-19T10:38:40;8.88;;;2.62;;
61150;SDS011;47029;50.994;2.876;2022-08-19T10:41:07;5.87;;;2.40;;
61150;SDS011;47029;50.994;2.876;2022-08-19T10:43:35;8.23;;;2.72;;
61150;SDS011;47029;50.994;2.876;2022-08-19T10:46:03;9.35;;;2.90;;
61150;SDS011;47029;50.994;2.876;2022-08-19T10:48:31;10.23;;;3.17;;
61150;SDS011;47029;50.994;2.876;2022-08-19T10:50:58;7.65;;;3.10;;
61150;SDS011;47029;50.994;2.876;2022-08-19T10:53:44;9.30;;;3.20;;
61150;SDS011;47029;50.994;2.876;2022-08-19T10:56:10;9.70;;;3.30;;
61150;SDS011;47029;50.994;2.876;2022-08-19T10:58:54;10.43;;;3.22;;
61150;SDS011;47029;50.994;2.876;2022-08-19T11:01:21;9.18;;;3.00;;
61150;SDS011;47029;50.994;2.876;2022-08-19T11:03:47;8.35;;;3.10;;
61150;SDS011;47029;50.994;2.876;2022-08-19T11:06:13;10.57;;;3.37;;
61150;SDS011;47029;50.994;2.876;2022-08-19T11:08:39;11.20;;;3.37;;
61150;SDS011;47029;50.994;2.876;2022-08-19T11:11:09;8.48;;;3.30;;
61150;SDS011;47029;50.994;2.876;2022-08-19T11:13:36;9.60;;;3.40;;
61150;SDS011;47029;50.994;2.876;2022-08-19T11:18:33;12.50;;;3.72;;
61150;SDS011;47029;50.994;2.876;2022-08-19T11:21:07;8.75;;;3.12;;
61150;SDS011;47029;50.994;2.876;2022-08-19T11:23:33;7.85;;;2.62;;
61150;SDS011;47029;50.994;2.876;2022-08-19T11:25:59;7.72;;;2.80;;
61150;SDS011;47029;50.994;2.876;2022-08-19T11:28:26;11.00;;;3.22;;
61150;SDS011;47029;50.994;2.876;2022-08-19T11:30:55;8.05;;;2.90;;
61150;SDS011;47029;50.994;2.876;2022-08-19T11:33:21;8.35;;;2.90;;
61150;SDS011;47029;50.994;2.876;2022-08-19T11:35:47;7.30;;;2.72;;
61150;SDS011;47029;50.994;2.876;2022-08-19T11:38:12;9.73;;;2.95;;
61150;SDS011;47029;50.994;2.876;2022-08-19T11:40:39;7.45;;;2.70;;
61150;SDS011;47029;50.994;2.876;2022-08-19T11:43:07;8.50;;;2.90;;
61150;SDS011;47029;50.994;2.876;2022-08-19T11:45:34;8.43;;;3.00;;
61150;SDS011;47029;50.994;2.876;2022-08-19T11:48:01;12.10;;;3.37;;
61150;SDS011;47029;50.994;2.876;2022-08-19T11:50:27;10.45;;;3.67;;
61150;SDS011;47029;50.994;2.876;2022-08-19T11:52:54;12.60;;;4.20;;
61150;SDS011;47029;50.994;2.876;2022-08-19T11:55:21;13.85;;;4.70;;
61150;SDS011;47029;50.994;2.876;2022-08-19T11:57:47;13.70;;;4.20;;
61150;SDS011;47029;50.994;2.876;2022-08-19T12:00:13;12.60;;;4.05;;
61150;SDS011;47029;50.994;2.876;2022-08-19T12:02:40;11.23;;;4.10;;
61150;SDS011;47029;50.994;2.876;2022-08-19T12:05:06;11.77;;;4.05;;
61150;SDS011;47029;50.994;2.876;2022-08-19T12:07:32;11.40;;;4.20;;
61150;SDS011;47029;50.994;2.876;2022-08-19T12:09:59;11.77;;;3.95;;
61150;SDS011;47029;50.994;2.876;2022-08-19T12:12:26;10.98;;;4.10;;
61150;SDS011;47029;50.994;2.876;2022-08-19T12:14:52;11.07;;;4.05;;
61150;SDS011;47029;50.994;2.876;2022-08-19T12:17:25;13.18;;;4.00;;
61150;SDS011;47029;50.994;2.876;2022-08-19T12:19:52;12.40;;;4.07;;
61150;SDS011;47029;50.994;2.876;2022-08-19T12:22:20;12.45;;;3.70;;
61150;SDS011;47029;50.994;2.876;2022-08-19T12:24:48;10.50;;;3.33;;
61150;SDS011;47029;50.994;2.876;2022-08-19T12:27:18;10.90;;;3.65;;
61150;SDS011;47029;50.994;2.876;2022-08-19T12:29:46;11.10;;;3.47;;
61150;SDS011;47029;50.994;2.876;2022-08-19T12:32:15;10.90;;;3.03;;
61150;SDS011;47029;50.994;2.876;2022-08-19T12:34:43;10.45;;;3.17;;
61150;SDS011;47029;50.994;2.876;2022-08-19T12:37:12;10.90;;;3.30;;
61150;SDS011;47029;50.994;2.876;2022-08-19T12:39:42;11.95;;;3.70;;
61150;SDS011;47029;50.994;2.876;2022-08-19T12:42:10;12.32;;;4.20;;
61150;SDS011;47029;50.994;2.876;2022-08-19T12:44:38;12.27;;;4.37;;
61150;SDS011;47029;50.994;2.876;2022-08-19T12:47:05;9.95;;;3.20;;
61150;SDS011;47029;50.994;2.876;2022-08-19T12:49:32;8.98;;;3.00;;
61150;SDS011;47029;50.994;2.876;2022-08-19T12:52:01;9.35;;;3.10;;
61150;SDS011;47029;50.994;2.876;2022-08-19T12:54:30;9.15;;;3.05;;
61150;SDS011;47029;50.994;2.876;2022-08-19T12:56:58;10.27;;;3.00;;
61150;SDS011;47029;50.994;2.876;2022-08-19T12:59:27;8.65;;;3.08;;
61150;SDS011;47029;50.994;2.876;2022-08-19T13:01:55;9.75;;;3.00;;
61150;SDS011;47029;50.994;2.876;2022-08-19T13:04:23;8.32;;;2.90;;
61150;SDS011;47029;50.994;2.876;2022-08-19T13:06:52;9.77;;;3.42;;
61150;SDS011;47029;50.994;2.876;2022-08-19T13:09:21;8.75;;;3.10;;
61150;SDS011;47029;50.994;2.876;2022-08-19T13:11:49;9.45;;;2.90;;
61150;SDS011;47029;50.994;2.876;2022-08-19T13:14:17;9.73;;;3.12;;
61150;SDS011;47029;50.994;2.876;2022-08-19T13:16:45;8.93;;;3.15;;
61150;SDS011;47029;50.994;2.876;2022-08-19T13:19:13;7.75;;;3.03;;
61150;SDS011;47029;50.994;2.876;2022-08-19T13:21:45;8.10;;;2.75;;
61150;SDS011;47029;50.994;2.876;2022-08-19T13:24:16;8.13;;;2.83;;
61150;SDS011;47029;50.994;2.876;2022-08-19T13:26:44;11.82;;;3.00;;
61150;SDS011;47029;50.994;2.876;2022-08-19T13:29:13;6.97;;;2.50;;
61150;SDS011;47029;50.994;2.876;2022-08-19T13:34:44;5.95;;;2.40;;
61150;SDS011;47029;50.994;2.876;2022-08-19T13:37:12;8.45;;;3.00;;
61150;SDS011;47029;50.994;2.876;2022-08-19T13:39:40;8.00;;;2.65;;
61150;SDS011;47029;50.994;2.876;2022-08-19T13:42:10;7.30;;;2.72;;
61150;SDS011;47029;50.994;2.876;2022-08-19T13:44:38;10.75;;;2.97;;
61150;SDS011;47029;50.994;2.876;2022-08-19T13:47:05;7.53;;;2.67;;
61150;SDS011;47029;50.994;2.876;2022-08-19T13:49:32;8.07;;;2.55;;
61150;SDS011;47029;50.994;2.876;2022-08-19T13:52:00;7.75;;;2.58;;
61150;SDS011;47029;50.994;2.876;2022-08-19T13:54:27;7.72;;;2.60;;
61150;SDS011;47029;50.994;2.876;2022-08-19T13:56:53;10.23;;;2.80;;
61150;SDS011;47029;50.994;2.876;2022-08-19T13:59:19;7.45;;;2.87;;
61150;SDS011;47029;50.994;2.876;2022-08-19T14:01:45;9.13;;;2.80;;
61150;SDS011;47029;50.994;2.876;2022-08-19T14:04:11;8.93;;;3.05;;
61150;SDS011;47029;50.994;2.876;2022-08-19T14:06:36;9.20;;;3.10;;
61150;SDS011;47029;50.994;2.876;2022-08-19T14:09:03;9.25;;;2.90;;
61150;SDS011;47029;50.994;2.876;2022-08-19T14:11:29;9.10;;;2.95;;
61150;SDS011;47029;50.994;2.876;2022-08-19T14:13:55;9.98;;;2.87;;
61150;SDS011;47029;50.994;2.876;2022-08-19T14:16:21;7.65;;;2.90;;
61150;SDS011;47029;50.994;2.876;2022-08-19T14:18:47;6.93;;;2.80;;
61150;SDS011;47029;50.994;2.876;2022-08-19T14:21:17;8.07;;;2.70;;
61150;SDS011;47029;50.994;2.876;2022-08-19T14:23:46;8.45;;;2.92;;
61150;SDS011;47029;50.994;2.876;2022-08-19T14:26:13;8.82;;;2.78;;
61150;SDS011;47029;50.994;2.876;2022-08-19T14:28:41;8.18;;;2.83;;
61150;SDS011;47029;50.994;2.876;2022-08-19T14:31:11;9.25;;;2.87;;
61150;SDS011;47029;50.994;2.876;2022-08-19T14:33:41;11.12;;;3.70;;
61150;SDS011;47029;50.994;2.876;2022-08-19T14:36:07;12.75;;;4.05;;
61150;SDS011;47029;50.994;2.876;2022-08-19T14:38:33;10.85;;;4.03;;
61150;SDS011;47029;50.994;2.876;2022-08-19T14:41:10;14.60;;;4.70;;
61150;SDS011;47029;50.994;2.876;2022-08-19T14:43:38;16.60;;;4.62;;
61150;SDS011;47029;50.994;2.876;2022-08-19T14:46:05;12.07;;;4.28;;
61150;SDS011;47029;50.994;2.876;2022-08-19T14:48:32;12.98;;;4.25;;
61150;SDS011;47029;50.994;2.876;2022-08-19T14:50:58;13.32;;;4.93;;
61150;SDS011;47029;50.994;2.876;2022-08-19T14:53:24;15.30;;;4.50;;
61150;SDS011;47029;50.994;2.876;2022-08-19T14:55:50;15.75;;;4.57;;
61150;SDS011;47029;50.994;2.876;2022-08-19T14:58:16;10.20;;;4.22;;
61150;SDS011;47029;50.994;2.876;2022-08-19T15:00:42;14.90;;;4.70;;
61150;SDS011;47029;50.994;2.876;2022-08-19T15:03:08;12.70;;;4.45;;